sensor_id;sensor_type;location;lat;lon;timestamp;P1;durP1;ratioP1;P2;durP2;ratioP2
60612;SDS011;46443;59.792;17.626;2023-03-01T00:02:25;1.83;;;1.20;;
60612;SDS011;46443;59.792;17.626;2023-03-01T00:04:51;1.30;;;1.20;;
60612;SDS011;46443;59.792;17.626;2023-03-01T00:07:17;1.85;;;1.33;;
60612;SDS011;46443;59.792;17.626;2023-03-01T00:09:43;2.90;;;1.30;;
60612;SDS011;46443;59.792;17.626;2023-03-01T00:12:10;4.55;;;1.58;;
60612;SDS011;46443;59.792;17.626;2023-03-01T00:14:37;1.80;;;1.30;;
60612;SDS011;46443;59.792;17.626;2023-03-01T00:17:03;2.35;;;1.38;;
60612;SDS011;46443;59.792;17.626;2023-03-01T00:19:29;1.40;;;1.30;;
60612;SDS011;46443;59.792;17.626;2023-03-01T00:21:55;2.92;;;1.33;;
60612;SDS011;46443;59.792;17.626;2023-03-01T00:24:21;1.67;;;1.20;;
60612;SDS011;46443;59.792;17.626;2023-03-01T00:26:47;2.95;;;1.65;;
60612;SDS011;46443;59.792;17.626;2023-03-01T00:29:13;1.98;;;1.30;;
60612;SDS011;46443;59.792;17.626;2023-03-01T00:31:39;1.52;;;1.20;;
60612;SDS011;46443;59.792;17.626;2023-03-01T00:34:05;1.42;;;1.20;;
60612;SDS011;46443;59.792;17.626;2023-03-01T00:36:32;2.30;;;1.45;;
60612;SDS011;46443;59.792;17.626;2023-03-01T00:38:59;2.38;;;1.30;;
60612;SDS011;46443;59.792;17.626;2023-03-01T00:41:25;1.73;;;1.40;;
60612;SDS011;46443;59.792;17.626;2023-03-01T00:43:52;2.75;;;1.30;;
60612;SDS011;46443;59.792;17.626;2023-03-01T00:46:20;2.95;;;1.40;;
60612;SDS011;46443;59.792;17.626;2023-03-01T00:48:46;1.40;;;1.30;;
60612;SDS011;46443;59.792;17.626;2023-03-01T00:51:13;3.08;;;1.30;;
60612;SDS011;46443;59.792;17.626;2023-03-01T00:53:40;1.35;;;1.25;;
60612;SDS011;46443;59.792;17.626;2023-03-01T00:56:06;1.73;;;1.20;;
60612;SDS011;46443;59.792;17.626;2023-03-01T00:58:33;2.28;;;1.40;;
60612;SDS011;46443;59.792;17.626;2023-03-01T01:00:59;3.33;;;1.45;;
60612;SDS011;46443;59.792;17.626;2023-03-01T01:03:25;1.60;;;1.25;;
60612;SDS011;46443;59.792;17.626;2023-03-01T01:05:52;1.38;;;1.27;;
60612;SDS011;46443;59.792;17.626;2023-03-01T01:08:18;2.92;;;1.60;;
60612;SDS011;46443;59.792;17.626;2023-03-01T01:10:45;2.25;;;1.40;;
60612;SDS011;46443;59.792;17.626;2023-03-01T01:13:11;2.88;;;1.50;;
60612;SDS011;46443;59.792;17.626;2023-03-01T01:15:37;2.50;;;1.40;;
60612;SDS011;46443;59.792;17.626;2023-03-01T01:18:03;2.10;;;1.50;;
60612;SDS011;46443;59.792;17.626;2023-03-01T01:20:29;2.00;;;1.30;;
60612;SDS011;46443;59.792;17.626;2023-03-01T01:22:55;2.10;;;1.48;;
60612;SDS011;46443;59.792;17.626;2023-03-01T01:25:21;3.08;;;1.35;;
60612;SDS011;46443;59.792;17.626;2023-03-01T01:27:50;1.33;;;1.23;;
60612;SDS011;46443;59.792;17.626;2023-03-01T01:30:16;1.63;;;1.35;;
60612;SDS011;46443;59.792;17.626;2023-03-01T01:32:42;2.83;;;1.45;;
60612;SDS011;46443;59.792;17.626;2023-03-01T01:35:08;2.47;;;1.33;;
60612;SDS011;46443;59.792;17.626;2023-03-01T01:37:34;2.58;;;1.42;;
60612;SDS011;46443;59.792;17.626;2023-03-01T01:40:01;1.23;;;1.13;;
60612;SDS011;46443;59.792;17.626;2023-03-01T01:42:31;2.00;;;1.30;;
60612;SDS011;46443;59.792;17.626;2023-03-01T01:47:42;2.00;;;1.40;;
60612;SDS011;46443;59.792;17.626;2023-03-01T01:50:08;1.92;;;1.38;;
60612;SDS011;46443;59.792;17.626;2023-03-01T01:52:37;2.58;;;1.33;;
60612;SDS011;46443;59.792;17.626;2023-03-01T01:55:08;1.38;;;1.10;;
60612;SDS011;46443;59.792;17.626;2023-03-01T01:57:40;1.90;;;1.27;;
60612;SDS011;46443;59.792;17.626;2023-03-01T02:00:08;2.42;;;1.58;;
60612;SDS011;46443;59.792;17.626;2023-03-01T02:02:35;2.25;;;1.13;;
60612;SDS011;46443;59.792;17.626;2023-03-01T02:05:12;1.80;;;1.27;;
60612;SDS011;46443;59.792;17.626;2023-03-01T02:07:40;3.90;;;1.30;;
60612;SDS011;46443;59.792;17.626;2023-03-01T02:10:08;2.70;;;1.30;;
60612;SDS011;46443;59.792;17.626;2023-03-01T02:12:34;3.47;;;1.20;;
60612;SDS011;46443;59.792;17.626;2023-03-01T02:15:01;1.20;;;1.10;;
60612;SDS011;46443;59.792;17.626;2023-03-01T02:17:27;7.35;;;1.52;;
60612;SDS011;46443;59.792;17.626;2023-03-01T02:24:52;2.40;;;1.10;;
60612;SDS011;46443;59.792;17.626;2023-03-01T02:27:24;3.00;;;1.20;;
60612;SDS011;46443;59.792;17.626;2023-03-01T02:29:52;2.40;;;1.35;;
60612;SDS011;46443;59.792;17.626;2023-03-01T02:32:18;1.42;;;1.27;;
60612;SDS011;46443;59.792;17.626;2023-03-01T02:34:51;2.35;;;1.20;;
60612;SDS011;46443;59.792;17.626;2023-03-01T02:37:17;2.85;;;1.00;;
60612;SDS011;46443;59.792;17.626;2023-03-01T02:39:52;2.08;;;0.90;;
60612;SDS011;46443;59.792;17.626;2023-03-01T02:42:22;1.42;;;0.90;;
60612;SDS011;46443;59.792;17.626;2023-03-01T02:44:49;3.55;;;1.10;;
60612;SDS011;46443;59.792;17.626;2023-03-01T02:47:15;2.95;;;1.10;;
60612;SDS011;46443;59.792;17.626;2023-03-01T02:49:41;0.85;;;0.85;;
60612;SDS011;46443;59.792;17.626;2023-03-01T02:54:36;2.90;;;1.13;;
60612;SDS011;46443;59.792;17.626;2023-03-01T02:57:05;3.15;;;1.02;;
60612;SDS011;46443;59.792;17.626;2023-03-01T02:59:32;2.50;;;1.05;;
60612;SDS011;46443;59.792;17.626;2023-03-01T03:02:04;1.98;;;1.40;;
60612;SDS011;46443;59.792;17.626;2023-03-01T03:04:30;2.72;;;1.08;;
60612;SDS011;46443;59.792;17.626;2023-03-01T03:06:57;1.70;;;1.05;;
60612;SDS011;46443;59.792;17.626;2023-03-01T03:09:23;1.90;;;1.00;;
60612;SDS011;46443;59.792;17.626;2023-03-01T03:11:49;1.85;;;1.13;;
60612;SDS011;46443;59.792;17.626;2023-03-01T03:14:15;1.17;;;1.00;;
60612;SDS011;46443;59.792;17.626;2023-03-01T03:16:43;1.15;;;1.05;;
60612;SDS011;46443;59.792;17.626;2023-03-01T03:19:09;1.00;;;1.00;;
60612;SDS011;46443;59.792;17.626;2023-03-01T03:21:36;5.10;;;1.25;;
60612;SDS011;46443;59.792;17.626;2023-03-01T03:24:02;1.80;;;1.05;;
60612;SDS011;46443;59.792;17.626;2023-03-01T03:26:28;1.20;;;0.98;;
60612;SDS011;46443;59.792;17.626;2023-03-01T03:28:54;2.35;;;1.17;;
60612;SDS011;46443;59.792;17.626;2023-03-01T03:31:22;1.73;;;1.30;;
60612;SDS011;46443;59.792;17.626;2023-03-01T03:33:48;2.17;;;1.20;;
60612;SDS011;46443;59.792;17.626;2023-03-01T03:36:20;1.70;;;0.90;;
60612;SDS011;46443;59.792;17.626;2023-03-01T03:38:47;1.02;;;1.00;;
60612;SDS011;46443;59.792;17.626;2023-03-01T03:41:14;1.20;;;1.10;;
60612;SDS011;46443;59.792;17.626;2023-03-01T03:43:41;0.98;;;0.98;;
60612;SDS011;46443;59.792;17.626;2023-03-01T03:46:08;1.88;;;1.25;;
60612;SDS011;46443;59.792;17.626;2023-03-01T03:48:44;0.80;;;0.80;;
60612;SDS011;46443;59.792;17.626;2023-03-01T03:51:12;2.05;;;1.10;;
60612;SDS011;46443;59.792;17.626;2023-03-01T03:53:38;1.67;;;1.20;;
60612;SDS011;46443;59.792;17.626;2023-03-01T03:56:04;3.50;;;1.17;;
60612;SDS011;46443;59.792;17.626;2023-03-01T03:58:30;1.55;;;1.45;;
60612;SDS011;46443;59.792;17.626;2023-03-01T04:00:57;1.63;;;1.00;;
60612;SDS011;46443;59.792;17.626;2023-03-01T04:03:23;1.00;;;0.95;;
60612;SDS011;46443;59.792;17.626;2023-03-01T04:05:50;1.08;;;1.02;;
60612;SDS011;46443;59.792;17.626;2023-03-01T04:08:20;1.65;;;0.90;;
60612;SDS011;46443;59.792;17.626;2023-03-01T04:10:47;0.80;;;0.80;;
60612;SDS011;46443;59.792;17.626;2023-03-01T04:13:15;1.10;;;1.00;;
60612;SDS011;46443;59.792;17.626;2023-03-01T04:15:41;0.90;;;0.90;;
60612;SDS011;46443;59.792;17.626;2023-03-01T04:18:14;1.23;;;0.90;;
60612;SDS011;46443;59.792;17.626;2023-03-01T04:20:40;1.77;;;1.15;;
60612;SDS011;46443;59.792;17.626;2023-03-01T04:23:08;3.97;;;1.17;;
60612;SDS011;46443;59.792;17.626;2023-03-01T04:25:53;1.08;;;0.93;;
60612;SDS011;46443;59.792;17.626;2023-03-01T04:28:39;1.52;;;1.10;;
60612;SDS011;46443;59.792;17.626;2023-03-01T04:31:09;1.00;;;1.00;;
60612;SDS011;46443;59.792;17.626;2023-03-01T04:33:39;1.23;;;1.00;;
60612;SDS011;46443;59.792;17.626;2023-03-01T04:36:05;1.38;;;1.00;;
60612;SDS011;46443;59.792;17.626;2023-03-01T04:38:33;2.45;;;1.00;;
60612;SDS011;46443;59.792;17.626;2023-03-01T04:41:01;0.80;;;0.80;;
60612;SDS011;46443;59.792;17.626;2023-03-01T04:43:28;1.50;;;1.10;;
60612;SDS011;46443;59.792;17.626;2023-03-01T04:45:54;1.73;;;1.00;;
60612;SDS011;46443;59.792;17.626;2023-03-01T04:48:20;1.63;;;1.13;;
60612;SDS011;46443;59.792;17.626;2023-03-01T04:50:46;1.00;;;1.00;;
60612;SDS011;46443;59.792;17.626;2023-03-01T04:53:12;1.63;;;1.08;;
60612;SDS011;46443;59.792;17.626;2023-03-01T04:55:38;1.20;;;1.10;;
60612;SDS011;46443;59.792;17.626;2023-03-01T04:58:04;3.05;;;1.27;;
60612;SDS011;46443;59.792;17.626;2023-03-01T05:00:30;2.22;;;1.15;;
60612;SDS011;46443;59.792;17.626;2023-03-01T05:02:59;1.00;;;1.00;;
60612;SDS011;46443;59.792;17.626;2023-03-01T05:05:27;1.13;;;1.10;;
60612;SDS011;46443;59.792;17.626;2023-03-01T05:07:57;3.13;;;1.05;;
60612;SDS011;46443;59.792;17.626;2023-03-01T05:10:24;1.17;;;1.08;;
60612;SDS011;46443;59.792;17.626;2023-03-01T05:12:50;1.17;;;1.00;;
60612;SDS011;46443;59.792;17.626;2023-03-01T05:15:17;1.20;;;1.10;;
60612;SDS011;46443;59.792;17.626;2023-03-01T05:17:43;1.00;;;1.00;;
60612;SDS011;46443;59.792;17.626;2023-03-01T05:20:10;0.95;;;0.95;;
60612;SDS011;46443;59.792;17.626;2023-03-01T05:22:36;1.00;;;1.00;;
60612;SDS011;46443;59.792;17.626;2023-03-01T05:25:03;2.80;;;1.20;;
60612;SDS011;46443;59.792;17.626;2023-03-01T05:27:29;0.93;;;0.90;;
60612;SDS011;46443;59.792;17.626;2023-03-01T05:29:56;1.05;;;1.00;;
60612;SDS011;46443;59.792;17.626;2023-03-01T05:32:22;1.73;;;1.15;;
60612;SDS011;46443;59.792;17.626;2023-03-01T05:34:48;1.15;;;0.90;;
60612;SDS011;46443;59.792;17.626;2023-03-01T05:37:14;1.17;;;1.00;;
60612;SDS011;46443;59.792;17.626;2023-03-01T05:39:40;1.33;;;0.98;;
60612;SDS011;46443;59.792;17.626;2023-03-01T05:42:09;1.00;;;1.00;;
60612;SDS011;46443;59.792;17.626;2023-03-01T05:44:36;3.80;;;1.23;;
60612;SDS011;46443;59.792;17.626;2023-03-01T05:47:02;0.95;;;0.93;;
60612;SDS011;46443;59.792;17.626;2023-03-01T05:49:28;1.48;;;1.17;;
60612;SDS011;46443;59.792;17.626;2023-03-01T05:51:55;1.00;;;1.00;;
60612;SDS011;46443;59.792;17.626;2023-03-01T05:54:21;1.00;;;1.00;;
60612;SDS011;46443;59.792;17.626;2023-03-01T05:56:47;1.45;;;1.30;;
60612;SDS011;46443;59.792;17.626;2023-03-01T05:59:13;1.23;;;1.20;;
60612;SDS011;46443;59.792;17.626;2023-03-01T06:01:41;1.58;;;1.10;;
60612;SDS011;46443;59.792;17.626;2023-03-01T06:04:07;0.93;;;0.88;;
60612;SDS011;46443;59.792;17.626;2023-03-01T06:06:34;0.98;;;0.98;;
60612;SDS011;46443;59.792;17.626;2023-03-01T06:09:02;1.20;;;1.10;;
60612;SDS011;46443;59.792;17.626;2023-03-01T06:11:28;0.80;;;0.80;;
60612;SDS011;46443;59.792;17.626;2023-03-01T06:13:54;0.93;;;0.90;;
60612;SDS011;46443;59.792;17.626;2023-03-01T06:16:20;0.93;;;0.90;;
60612;SDS011;46443;59.792;17.626;2023-03-01T06:18:46;0.90;;;0.90;;
60612;SDS011;46443;59.792;17.626;2023-03-01T06:21:12;1.08;;;1.02;;
60612;SDS011;46443;59.792;17.626;2023-03-01T06:23:38;1.20;;;1.10;;
60612;SDS011;46443;59.792;17.626;2023-03-01T06:26:05;1.20;;;1.10;;
60612;SDS011;46443;59.792;17.626;2023-03-01T06:28:32;2.28;;;1.40;;
60612;SDS011;46443;59.792;17.626;2023-03-01T06:30:58;1.65;;;1.10;;
60612;SDS011;46443;59.792;17.626;2023-03-01T06:33:24;1.20;;;1.10;;
60612;SDS011;46443;59.792;17.626;2023-03-01T06:35:50;2.40;;;1.23;;
60612;SDS011;46443;59.792;17.626;2023-03-01T06:38:16;1.38;;;1.10;;
60612;SDS011;46443;59.792;17.626;2023-03-01T06:40:44;0.95;;;0.95;;
60612;SDS011;46443;59.792;17.626;2023-03-01T06:43:10;1.27;;;1.17;;
60612;SDS011;46443;59.792;17.626;2023-03-01T06:45:37;1.20;;;1.10;;
60612;SDS011;46443;59.792;17.626;2023-03-01T06:48:04;1.67;;;0.98;;
60612;SDS011;46443;59.792;17.626;2023-03-01T06:50:30;1.45;;;1.30;;
60612;SDS011;46443;59.792;17.626;2023-03-01T06:52:57;2.00;;;1.42;;
60612;SDS011;46443;59.792;17.626;2023-03-01T06:55:23;0.98;;;0.95;;
60612;SDS011;46443;59.792;17.626;2023-03-01T06:57:53;1.27;;;1.20;;
60612;SDS011;46443;59.792;17.626;2023-03-01T07:00:19;1.05;;;0.95;;
60612;SDS011;46443;59.792;17.626;2023-03-01T07:02:46;1.42;;;0.90;;
60612;SDS011;46443;59.792;17.626;2023-03-01T07:05:12;2.58;;;1.23;;
60612;SDS011;46443;59.792;17.626;2023-03-01T07:07:38;1.88;;;1.10;;
60612;SDS011;46443;59.792;17.626;2023-03-01T07:10:04;1.45;;;0.95;;
60612;SDS011;46443;59.792;17.626;2023-03-01T07:12:30;1.85;;;1.40;;
60612;SDS011;46443;59.792;17.626;2023-03-01T07:14:56;2.72;;;1.15;;
60612;SDS011;46443;59.792;17.626;2023-03-01T07:17:22;1.33;;;1.20;;
60612;SDS011;46443;59.792;17.626;2023-03-01T07:19:48;1.63;;;1.48;;
60612;SDS011;46443;59.792;17.626;2023-03-01T07:22:14;2.65;;;1.40;;
60612;SDS011;46443;59.792;17.626;2023-03-01T07:24:41;1.00;;;1.00;;
60612;SDS011;46443;59.792;17.626;2023-03-01T07:27:07;1.52;;;1.13;;
60612;SDS011;46443;59.792;17.626;2023-03-01T07:29:33;2.53;;;1.23;;
60612;SDS011;46443;59.792;17.626;2023-03-01T07:32:01;1.98;;;1.13;;
60612;SDS011;46443;59.792;17.626;2023-03-01T07:34:27;1.52;;;1.30;;
60612;SDS011;46443;59.792;17.626;2023-03-01T07:36:53;2.10;;;1.30;;
60612;SDS011;46443;59.792;17.626;2023-03-01T07:39:20;1.58;;;1.20;;
60612;SDS011;46443;59.792;17.626;2023-03-01T07:41:48;2.90;;;1.27;;
60612;SDS011;46443;59.792;17.626;2023-03-01T07:44:14;2.83;;;1.40;;
60612;SDS011;46443;59.792;17.626;2023-03-01T07:46:41;1.73;;;1.40;;
60612;SDS011;46443;59.792;17.626;2023-03-01T07:49:07;3.22;;;1.40;;
60612;SDS011;46443;59.792;17.626;2023-03-01T07:51:33;1.38;;;1.20;;
60612;SDS011;46443;59.792;17.626;2023-03-01T07:53:59;1.38;;;1.20;;
60612;SDS011;46443;59.792;17.626;2023-03-01T07:56:25;3.03;;;1.50;;
60612;SDS011;46443;59.792;17.626;2023-03-01T07:58:51;1.35;;;1.20;;
60612;SDS011;46443;59.792;17.626;2023-03-01T08:01:19;2.00;;;1.50;;
60612;SDS011;46443;59.792;17.626;2023-03-01T08:03:45;1.25;;;1.15;;
60612;SDS011;46443;59.792;17.626;2023-03-01T08:06:12;1.55;;;1.15;;
60612;SDS011;46443;59.792;17.626;2023-03-01T08:08:38;1.42;;;1.02;;
60612;SDS011;46443;59.792;17.626;2023-03-01T08:11:05;1.33;;;1.23;;
60612;SDS011;46443;59.792;17.626;2023-03-01T08:13:32;1.40;;;1.27;;
60612;SDS011;46443;59.792;17.626;2023-03-01T08:16:05;1.52;;;1.10;;
60612;SDS011;46443;59.792;17.626;2023-03-01T08:18:32;1.02;;;1.00;;
60612;SDS011;46443;59.792;17.626;2023-03-01T08:21:02;1.48;;;1.05;;
60612;SDS011;46443;59.792;17.626;2023-03-01T08:23:28;1.27;;;1.10;;
60612;SDS011;46443;59.792;17.626;2023-03-01T08:25:55;0.93;;;0.93;;
60612;SDS011;46443;59.792;17.626;2023-03-01T08:28:21;0.90;;;0.90;;
60612;SDS011;46443;59.792;17.626;2023-03-01T08:30:47;1.00;;;0.90;;
60612;SDS011;46443;59.792;17.626;2023-03-01T08:33:13;1.48;;;1.00;;
60612;SDS011;46443;59.792;17.626;2023-03-01T08:35:39;1.20;;;1.00;;
60612;SDS011;46443;59.792;17.626;2023-03-01T08:38:05;1.45;;;1.15;;
60612;SDS011;46443;59.792;17.626;2023-03-01T08:40:31;1.00;;;0.98;;
60612;SDS011;46443;59.792;17.626;2023-03-01T08:42:57;1.45;;;1.10;;
60612;SDS011;46443;59.792;17.626;2023-03-01T08:45:23;1.40;;;1.30;;
60612;SDS011;46443;59.792;17.626;2023-03-01T08:47:51;2.40;;;1.00;;
60612;SDS011;46443;59.792;17.626;2023-03-01T08:50:18;1.25;;;1.00;;
60612;SDS011;46443;59.792;17.626;2023-03-01T08:52:44;0.90;;;0.90;;
60612;SDS011;46443;59.792;17.626;2023-03-01T08:55:10;1.33;;;1.00;;
60612;SDS011;46443;59.792;17.626;2023-03-01T08:57:36;0.97;;;0.97;;
60612;SDS011;46443;59.792;17.626;2023-03-01T09:00:02;1.27;;;1.17;;
60612;SDS011;46443;59.792;17.626;2023-03-01T09:02:33;2.20;;;1.30;;
60612;SDS011;46443;59.792;17.626;2023-03-01T09:04:59;1.33;;;0.80;;
60612;SDS011;46443;59.792;17.626;2023-03-01T09:07:26;0.90;;;0.90;;
60612;SDS011;46443;59.792;17.626;2023-03-01T09:12:21;1.27;;;0.80;;
60612;SDS011;46443;59.792;17.626;2023-03-01T09:14:47;0.70;;;0.70;;
60612;SDS011;46443;59.792;17.626;2023-03-01T09:17:13;0.77;;;0.77;;
60612;SDS011;46443;59.792;17.626;2023-03-01T09:19:39;1.80;;;0.90;;
60612;SDS011;46443;59.792;17.626;2023-03-01T09:22:05;1.60;;;0.80;;
60612;SDS011;46443;59.792;17.626;2023-03-01T09:24:31;0.93;;;0.80;;
60612;SDS011;46443;59.792;17.626;2023-03-01T09:26:57;2.93;;;0.70;;
60612;SDS011;46443;59.792;17.626;2023-03-01T09:29:23;0.50;;;0.50;;
60612;SDS011;46443;59.792;17.626;2023-03-01T09:31:50;0.67;;;0.67;;
60612;SDS011;46443;59.792;17.626;2023-03-01T09:34:19;1.30;;;0.82;;
60612;SDS011;46443;59.792;17.626;2023-03-01T09:36:48;2.47;;;0.90;;
60612;SDS011;46443;59.792;17.626;2023-03-01T09:39:15;1.17;;;0.80;;
60612;SDS011;46443;59.792;17.626;2023-03-01T09:42:02;0.70;;;0.70;;
60612;SDS011;46443;59.792;17.626;2023-03-01T09:46:59;2.05;;;0.90;;
60612;SDS011;46443;59.792;17.626;2023-03-01T09:49:33;1.63;;;1.10;;
60612;SDS011;46443;59.792;17.626;2023-03-01T09:52:01;0.70;;;0.57;;
60612;SDS011;46443;59.792;17.626;2023-03-01T09:54:29;0.97;;;0.80;;
60612;SDS011;46443;59.792;17.626;2023-03-01T09:59:30;0.93;;;0.70;;
60612;SDS011;46443;59.792;17.626;2023-03-01T10:02:00;1.43;;;0.87;;
60612;SDS011;46443;59.792;17.626;2023-03-01T10:05:03;1.10;;;0.80;;
60612;SDS011;46443;59.792;17.626;2023-03-01T10:07:32;0.97;;;0.87;;
60612;SDS011;46443;59.792;17.626;2023-03-01T10:09:59;0.60;;;0.60;;
60612;SDS011;46443;59.792;17.626;2023-03-01T10:12:35;1.95;;;0.80;;
60612;SDS011;46443;59.792;17.626;2023-03-01T10:20:05;2.07;;;1.10;;
60612;SDS011;46443;59.792;17.626;2023-03-01T10:22:36;0.63;;;0.63;;
60612;SDS011;46443;59.792;17.626;2023-03-01T10:25:02;0.67;;;0.50;;
60612;SDS011;46443;59.792;17.626;2023-03-01T10:32:24;0.97;;;0.70;;
60612;SDS011;46443;59.792;17.626;2023-03-01T10:34:50;1.83;;;0.63;;
60612;SDS011;46443;59.792;17.626;2023-03-01T10:37:17;0.97;;;0.60;;
60612;SDS011;46443;59.792;17.626;2023-03-01T10:39:55;0.77;;;0.77;;
60612;SDS011;46443;59.792;17.626;2023-03-01T10:42:31;0.70;;;0.70;;
60612;SDS011;46443;59.792;17.626;2023-03-01T10:44:58;1.80;;;1.10;;
60612;SDS011;46443;59.792;17.626;2023-03-01T10:47:40;0.70;;;0.70;;
60612;SDS011;46443;59.792;17.626;2023-03-01T10:50:17;0.70;;;0.70;;
60612;SDS011;46443;59.792;17.626;2023-03-01T10:52:44;0.80;;;0.80;;
60612;SDS011;46443;59.792;17.626;2023-03-01T10:55:26;1.80;;;0.90;;
60612;SDS011;46443;59.792;17.626;2023-03-01T11:00:50;2.67;;;0.70;;
60612;SDS011;46443;59.792;17.626;2023-03-01T11:03:19;0.70;;;0.70;;
60612;SDS011;46443;59.792;17.626;2023-03-01T11:08:31;0.83;;;0.83;;
60612;SDS011;46443;59.792;17.626;2023-03-01T11:14:05;0.90;;;0.90;;
60612;SDS011;46443;59.792;17.626;2023-03-01T11:16:38;0.90;;;0.90;;
60612;SDS011;46443;59.792;17.626;2023-03-01T11:21:31;0.80;;;0.80;;
60612;SDS011;46443;59.792;17.626;2023-03-01T11:23:59;2.17;;;1.00;;
60612;SDS011;46443;59.792;17.626;2023-03-01T11:26:25;0.80;;;0.80;;
60612;SDS011;46443;59.792;17.626;2023-03-01T11:28:53;0.87;;;0.87;;
60612;SDS011;46443;59.792;17.626;2023-03-01T11:31:20;0.70;;;0.70;;
60612;SDS011;46443;59.792;17.626;2023-03-01T11:33:49;0.90;;;0.90;;
60612;SDS011;46443;59.792;17.626;2023-03-01T11:39:46;0.97;;;0.87;;
60612;SDS011;46443;59.792;17.626;2023-03-01T11:41:52;0.95;;;0.70;;
60612;SDS011;46443;59.792;17.626;2023-03-01T11:44:26;0.90;;;0.90;;
60612;SDS011;46443;59.792;17.626;2023-03-01T11:54:59;0.90;;;0.90;;
60612;SDS011;46443;59.792;17.626;2023-03-01T12:18:26;0.80;;;0.80;;
60612;SDS011;46443;59.792;17.626;2023-03-01T12:38:59;0.60;;;0.60;;
60612;SDS011;46443;59.792;17.626;2023-03-01T12:41:37;0.40;;;0.40;;
60612;SDS011;46443;59.792;17.626;2023-03-01T12:49:18;0.60;;;0.50;;
60612;SDS011;46443;59.792;17.626;2023-03-01T12:51:53;0.63;;;0.57;;
60612;SDS011;46443;59.792;17.626;2023-03-01T12:54:26;0.60;;;0.60;;
60612;SDS011;46443;59.792;17.626;2023-03-01T12:56:53;0.40;;;0.40;;
60612;SDS011;46443;59.792;17.626;2023-03-01T13:12:00;0.70;;;0.63;;
60612;SDS011;46443;59.792;17.626;2023-03-01T13:16:58;0.50;;;0.50;;
60612;SDS011;46443;59.792;17.626;2023-03-01T13:19:25;0.40;;;0.40;;
60612;SDS011;46443;59.792;17.626;2023-03-01T13:21:54;0.43;;;0.43;;
60612;SDS011;46443;59.792;17.626;2023-03-01T13:34:49;0.45;;;0.45;;
60612;SDS011;46443;59.792;17.626;2023-03-01T13:37:25;0.87;;;0.87;;
60612;SDS011;46443;59.792;17.626;2023-03-01T13:39:54;0.60;;;0.60;;
60612;SDS011;46443;59.792;17.626;2023-03-01T13:42:33;0.33;;;0.33;;
60612;SDS011;46443;59.792;17.626;2023-03-01T13:45:00;0.40;;;0.40;;
60612;SDS011;46443;59.792;17.626;2023-03-01T13:47:26;0.57;;;0.57;;
60612;SDS011;46443;59.792;17.626;2023-03-01T13:49:59;0.83;;;0.80;;
60612;SDS011;46443;59.792;17.626;2023-03-01T13:54:58;0.60;;;0.60;;
60612;SDS011;46443;59.792;17.626;2023-03-01T13:57:29;0.60;;;0.60;;
60612;SDS011;46443;59.792;17.626;2023-03-01T13:59:56;0.73;;;0.52;;
60612;SDS011;46443;59.792;17.626;2023-03-01T14:02:22;0.63;;;0.63;;
60612;SDS011;46443;59.792;17.626;2023-03-01T14:05:00;0.47;;;0.47;;
60612;SDS011;46443;59.792;17.626;2023-03-01T14:07:26;0.77;;;0.57;;
60612;SDS011;46443;59.792;17.626;2023-03-01T14:10:00;0.40;;;0.40;;
60612;SDS011;46443;59.792;17.626;2023-03-01T14:15:19;0.70;;;0.70;;
60612;SDS011;46443;59.792;17.626;2023-03-01T14:17:55;0.53;;;0.50;;
60612;SDS011;46443;59.792;17.626;2023-03-01T14:20:25;0.50;;;0.50;;
60612;SDS011;46443;59.792;17.626;2023-03-01T14:22:53;0.47;;;0.47;;
60612;SDS011;46443;59.792;17.626;2023-03-01T14:30:30;0.60;;;0.60;;
60612;SDS011;46443;59.792;17.626;2023-03-01T14:33:01;0.70;;;0.70;;
60612;SDS011;46443;59.792;17.626;2023-03-01T14:35:29;1.53;;;0.90;;
60612;SDS011;46443;59.792;17.626;2023-03-01T14:37:56;0.97;;;0.63;;
60612;SDS011;46443;59.792;17.626;2023-03-01T14:42:49;1.33;;;0.70;;
60612;SDS011;46443;59.792;17.626;2023-03-01T14:45:15;0.87;;;0.53;;
60612;SDS011;46443;59.792;17.626;2023-03-01T14:47:43;1.33;;;0.83;;
60612;SDS011;46443;59.792;17.626;2023-03-01T14:50:31;0.60;;;0.60;;
60612;SDS011;46443;59.792;17.626;2023-03-01T14:53:03;0.57;;;0.57;;
60612;SDS011;46443;59.792;17.626;2023-03-01T14:55:37;0.93;;;0.70;;
60612;SDS011;46443;59.792;17.626;2023-03-01T14:58:06;1.07;;;0.90;;
60612;SDS011;46443;59.792;17.626;2023-03-01T15:00:35;0.68;;;0.68;;
60612;SDS011;46443;59.792;17.626;2023-03-01T15:03:07;0.50;;;0.50;;
60612;SDS011;46443;59.792;17.626;2023-03-01T15:05:38;1.20;;;0.50;;
60612;SDS011;46443;59.792;17.626;2023-03-01T15:08:04;2.07;;;0.80;;
60612;SDS011;46443;59.792;17.626;2023-03-01T15:10:32;0.63;;;0.60;;
60612;SDS011;46443;59.792;17.626;2023-03-01T15:13:19;0.70;;;0.60;;
60612;SDS011;46443;59.792;17.626;2023-03-01T15:15:47;1.30;;;0.80;;
60612;SDS011;46443;59.792;17.626;2023-03-01T15:18:16;0.67;;;0.67;;
60612;SDS011;46443;59.792;17.626;2023-03-01T15:20:43;1.47;;;1.00;;
60612;SDS011;46443;59.792;17.626;2023-03-01T15:23:17;2.90;;;0.80;;
60612;SDS011;46443;59.792;17.626;2023-03-01T15:25:44;0.97;;;0.70;;
60612;SDS011;46443;59.792;17.626;2023-03-01T15:28:12;0.50;;;0.50;;
60612;SDS011;46443;59.792;17.626;2023-03-01T15:30:42;0.80;;;0.80;;
60612;SDS011;46443;59.792;17.626;2023-03-01T15:35:47;0.60;;;0.60;;
60612;SDS011;46443;59.792;17.626;2023-03-01T15:43:48;0.80;;;0.80;;
60612;SDS011;46443;59.792;17.626;2023-03-01T15:46:16;0.70;;;0.70;;
60612;SDS011;46443;59.792;17.626;2023-03-01T15:48:46;1.87;;;0.83;;
60612;SDS011;46443;59.792;17.626;2023-03-01T15:51:14;0.60;;;0.60;;
60612;SDS011;46443;59.792;17.626;2023-03-01T15:53:41;0.60;;;0.60;;
60612;SDS011;46443;59.792;17.626;2023-03-01T15:56:08;0.60;;;0.60;;
60612;SDS011;46443;59.792;17.626;2023-03-01T15:58:34;0.87;;;0.73;;
60612;SDS011;46443;59.792;17.626;2023-03-01T16:01:00;0.50;;;0.50;;
60612;SDS011;46443;59.792;17.626;2023-03-01T16:03:26;1.73;;;0.80;;
60612;SDS011;46443;59.792;17.626;2023-03-01T16:05:53;0.70;;;0.70;;
60612;SDS011;46443;59.792;17.626;2023-03-01T16:08:19;0.60;;;0.60;;
60612;SDS011;46443;59.792;17.626;2023-03-01T16:10:45;0.80;;;0.60;;
60612;SDS011;46443;59.792;17.626;2023-03-01T16:13:13;0.63;;;0.63;;
60612;SDS011;46443;59.792;17.626;2023-03-01T16:15:39;0.50;;;0.50;;
60612;SDS011;46443;59.792;17.626;2023-03-01T16:18:05;1.00;;;0.73;;
60612;SDS011;46443;59.792;17.626;2023-03-01T16:20:33;0.63;;;0.63;;
60612;SDS011;46443;59.792;17.626;2023-03-01T16:22:59;1.23;;;0.77;;
60612;SDS011;46443;59.792;17.626;2023-03-01T16:25:26;1.67;;;0.80;;
60612;SDS011;46443;59.792;17.626;2023-03-01T16:27:52;0.57;;;0.57;;
60612;SDS011;46443;59.792;17.626;2023-03-01T16:30:20;0.63;;;0.63;;
60612;SDS011;46443;59.792;17.626;2023-03-01T16:32:46;1.90;;;0.73;;
60612;SDS011;46443;59.792;17.626;2023-03-01T16:35:13;0.60;;;0.60;;
60612;SDS011;46443;59.792;17.626;2023-03-01T16:37:40;0.67;;;0.67;;
60612;SDS011;46443;59.792;17.626;2023-03-01T16:40:09;1.93;;;0.90;;
60612;SDS011;46443;59.792;17.626;2023-03-01T16:42:41;0.90;;;0.67;;
60612;SDS011;46443;59.792;17.626;2023-03-01T16:45:07;1.03;;;0.67;;
60612;SDS011;46443;59.792;17.626;2023-03-01T16:47:34;1.07;;;0.80;;
60612;SDS011;46443;59.792;17.626;2023-03-01T16:50:00;0.77;;;0.77;;
60612;SDS011;46443;59.792;17.626;2023-03-01T16:52:26;0.70;;;0.70;;
60612;SDS011;46443;59.792;17.626;2023-03-01T16:54:52;1.50;;;0.80;;
60612;SDS011;46443;59.792;17.626;2023-03-01T16:57:19;1.70;;;1.00;;
60612;SDS011;46443;59.792;17.626;2023-03-01T16:59:45;3.17;;;1.07;;